createdAt,value
2023-01-29T02:26:07.680Z,74.76
2023-01-29T02:28:56.641Z,73.51
2023-01-29T02:31:30.989Z,73.74
2023-01-29T02:34:26.809Z,73.73
2023-01-29T02:37:08.478Z,73.49
2023-01-29T02:39:58.674Z,73.45
2023-01-29T02:42:27.568Z,73.61
2023-01-29T02:45:13.349Z,73.73
2023-01-29T02:47:49.218Z,73.86
2023-01-29T02:50:21.399Z,73.66
2023-01-29T02:52:59.272Z,73.60
2023-01-29T02:55:41.272Z,73.52
2023-01-29T02:58:30.152Z,73.62
2023-01-29T03:01:03.343Z,73.77
2023-01-29T03:03:46.555Z,73.86
2023-01-29T03:06:36.288Z,73.89
2023-01-29T03:09:20.125Z,74.16
2023-01-29T03:11:57.057Z,74.30
2023-01-29T03:15:12.151Z,74.61
2023-01-29T03:18:02.840Z,74.50
2023-01-29T03:20:34.484Z,74.86
2023-01-29T03:23:06.463Z,75.03
2023-01-29T03:25:54.714Z,75.14
2023-01-29T03:28:43.059Z,75.12
2023-01-29T03:31:31.709Z,75.13
2023-01-29T03:34:16.726Z,74.96
2023-01-29T03:36:56.054Z,74.79
2023-01-29T03:39:26.065Z,74.52
2023-01-29T03:42:18.792Z,74.37
2023-01-29T03:45:09.084Z,74.41
2023-01-29T03:47:45.351Z,74.22
2023-01-29T03:50:31.751Z,74.06
2023-01-29T03:53:28.496Z,73.82
2023-01-29T03:56:09.182Z,73.52
2023-01-29T03:58:47.485Z,73.43
2023-01-29T04:01:21.225Z,73.07
2023-01-29T04:03:55.002Z,72.78
2023-01-29T04:06:34.373Z,72.51
2023-01-29T04:09:12.750Z,72.30
2023-01-29T04:11:45.050Z,72.02
2023-01-29T04:14:13.506Z,71.73
2023-01-29T04:16:44.526Z,71.63
2023-01-29T04:19:16.308Z,71.59
2023-01-29T04:21:45.200Z,71.48
2023-01-29T04:24:13.738Z,71.38
2023-01-29T04:27:04.596Z,71.19
2023-01-29T04:29:39.629Z,71.00
2023-01-29T04:32:38.119Z,70.76
2023-01-29T04:35:11.425Z,70.94
2023-01-29T04:38:16.872Z,71.12
2023-01-29T04:41:03.595Z,71.08
2023-01-29T04:43:57.870Z,71.27
2023-01-29T04:46:44.899Z,71.49
2023-01-29T04:49:41.636Z,71.66
2023-01-29T04:52:34.604Z,71.87
2023-01-29T04:55:28.385Z,71.87
2023-01-29T04:58:17.235Z,72.02
2023-01-29T05:00:47.149Z,72.22
2023-01-29T05:03:16.157Z,72.42
2023-01-29T05:05:46.885Z,72.44
2023-01-29T05:08:17.636Z,72.57
2023-01-29T05:10:46.973Z,72.60
2023-01-29T05:13:16.026Z,72.82
2023-01-29T05:15:48.168Z,72.88
2023-01-29T05:18:16.886Z,72.88
2023-01-29T05:20:45.271Z,72.92
2023-01-29T05:23:23.379Z,73.01
2023-01-29T05:25:52.388Z,73.08
2023-01-29T05:28:21.174Z,73.04
2023-01-29T05:30:52.337Z,73.05
2023-01-29T05:33:25.921Z,72.87
2023-01-29T05:35:55.027Z,72.91
2023-01-29T05:38:23.703Z,72.72
2023-01-29T05:40:52.086Z,72.55
2023-01-29T05:43:21.933Z,72.80
2023-01-29T05:46:01.607Z,73.20
2023-01-29T05:48:30.238Z,73.34
2023-01-29T05:51:04.659Z,73.83
2023-01-29T05:53:33.525Z,73.88
2023-01-29T08:33:30.022Z,81.54
2023-01-29T08:36:06.093Z,79.69
2023-01-29T08:38:34.341Z,79.82
2023-01-29T08:41:03.033Z,79.59
2023-01-29T08:43:31.816Z,79.38
2023-01-29T08:46:00.419Z,78.71
2023-01-29T08:48:30.623Z,78.37
2023-01-29T08:51:03.035Z,77.93
2023-01-29T08:53:32.816Z,77.81
2023-01-29T08:56:01.258Z,77.76
2023-01-29T08:58:29.984Z,77.36
2023-01-29T09:01:06.337Z,77.08
2023-01-29T09:03:34.631Z,76.67
2023-01-29T09:06:03.728Z,76.57
2023-01-29T09:08:32.320Z,76.35
2023-01-29T09:11:01.819Z,75.81
2023-01-29T09:13:31.634Z,75.29
2023-01-29T09:16:01.447Z,75.11
2023-01-29T09:18:30.443Z,75.48
2023-01-29T09:20:59.025Z,74.81
2023-01-29T09:23:28.022Z,75.14
2023-01-29T09:25:56.927Z,75.21
2023-01-29T09:28:25.605Z,75.03
2023-01-29T09:30:54.078Z,74.40
2023-01-29T09:33:22.699Z,74.29
2023-01-29T09:35:51.050Z,73.83
2023-01-29T09:38:19.743Z,73.58
2023-01-29T09:41:23.655Z,73.61
2023-01-29T09:43:56.031Z,73.95
2023-01-29T09:46:28.218Z,74.16
2023-01-29T09:49:29.967Z,73.92
2023-01-29T09:52:01.622Z,73.48
2023-01-29T09:54:45.581Z,73.62
2023-01-29T09:57:19.589Z,73.67
2023-01-29T09:59:47.863Z,73.79
2023-01-29T10:02:38.777Z,73.50
2023-01-29T10:05:18.771Z,73.73
2023-01-29T10:08:17.009Z,73.60
2023-01-29T10:10:51.877Z,73.57
2023-01-29T10:13:30.686Z,73.71
2023-01-29T10:16:06.137Z,73.77
2023-01-29T10:18:40.637Z,73.55
2023-01-29T10:21:24.589Z,73.17
2023-01-29T10:23:56.249Z,73.28
2023-01-29T10:26:25.254Z,73.16
2023-01-29T10:28:55.298Z,72.95
2023-01-29T10:31:28.138Z,72.67
2023-01-29T10:34:03.384Z,72.70
2023-01-29T10:36:47.721Z,73.00
2023-01-29T10:39:19.910Z,73.27
2023-01-29T10:42:07.237Z,72.85
2023-01-29T10:45:10.742Z,72.85
2023-01-29T10:47:48.572Z,72.56
2023-01-29T10:50:23.174Z,72.57
2023-01-29T10:53:16.733Z,72.29
2023-01-29T10:56:10.718Z,72.27
2023-01-29T10:58:50.259Z,72.16
2023-01-29T11:01:18.652Z,71.31
2023-01-29T11:03:47.122Z,70.65
2023-01-29T11:06:21.860Z,70.40
2023-01-29T11:09:09.176Z,70.62
2023-01-29T11:11:46.688Z,70.12
2023-01-29T11:14:30.306Z,69.87
2023-01-29T11:16:59.005Z,69.68
2023-01-29T11:19:42.534Z,69.44
2023-01-29T11:22:20.070Z,69.94
2023-01-29T11:25:10.024Z,69.62
2023-01-29T11:27:43.505Z,69.06
2023-01-29T11:30:38.971Z,69.44
2023-01-29T11:33:09.994Z,69.90
2023-01-29T11:35:38.345Z,70.49
2023-01-29T11:38:26.503Z,70.75
2023-01-29T11:41:11.451Z,69.87
2023-01-29T11:43:39.836Z,69.88
2023-01-29T11:46:13.321Z,69.97
2023-01-29T11:48:42.137Z,69.58
2023-01-29T11:51:12.546Z,69.04
2023-01-29T11:53:45.319Z,68.92
2023-01-29T11:56:40.845Z,69.18
2023-01-29T11:59:28.480Z,68.93
2023-01-29T12:01:56.956Z,68.49
2023-01-29T12:04:25.717Z,68.66
2023-01-29T12:06:54.033Z,68.29
2023-01-29T12:09:24.168Z,67.98
2023-01-29T12:11:52.827Z,68.09
2023-01-29T12:14:30.078Z,67.88
2023-01-29T12:17:15.414Z,68.19
2023-01-29T12:19:59.543Z,68.45
2023-01-29T12:22:36.114Z,68.47
2023-01-29T12:25:19.546Z,68.53
2023-01-29T12:28:09.581Z,68.31
2023-01-29T12:30:49.601Z,68.45
2023-01-29T12:34:00.565Z,68.46
2023-01-29T12:36:44.199Z,68.20
2023-01-29T12:39:12.478Z,67.71
2023-01-29T12:41:46.694Z,67.87
2023-01-29T12:44:37.726Z,67.87
2023-01-29T12:47:07.052Z,67.67
2023-01-29T12:49:35.899Z,67.67
2023-01-29T12:52:07.247Z,67.41
2023-01-29T12:54:38.805Z,67.22
2023-01-29T12:57:42.719Z,67.18
2023-01-29T13:00:17.871Z,67.25
2023-01-29T13:03:08.208Z,67.62
2023-01-29T13:05:39.907Z,67.72
2023-01-29T13:08:14.845Z,67.92
2023-01-29T13:10:44.974Z,67.69
2023-01-29T13:13:15.186Z,67.50
2023-01-29T13:15:44.704Z,67.64
2023-01-29T13:18:33.864Z,67.92
2023-01-29T13:21:02.248Z,68.05
2023-01-29T13:24:09.643Z,68.19
2023-01-29T13:26:38.352Z,67.71
2023-01-29T13:29:06.911Z,67.59
2023-01-29T13:31:36.970Z,66.94
2023-01-29T13:34:15.769Z,67.22
2023-01-29T13:36:48.912Z,67.62
2023-01-29T13:39:33.522Z,67.25
2023-01-29T13:42:03.586Z,67.32
2023-01-29T13:44:38.003Z,67.08
2023-01-29T13:47:08.284Z,67.01
2023-01-29T13:49:41.065Z,67.09
2023-01-29T13:52:43.644Z,67.21
2023-01-29T13:55:15.223Z,66.99
2023-01-29T18:18:00.416Z,62.07
2023-01-29T18:20:30.406Z,60.11
2023-01-29T18:22:58.888Z,59.75
2023-01-29T18:25:27.271Z,60.02
2023-01-29T18:27:55.660Z,59.49
2023-01-29T18:30:24.371Z,59.47
2023-01-29T18:32:54.149Z,59.85
2023-01-29T18:35:22.867Z,59.62
2023-01-29T18:37:51.836Z,59.94
2023-01-29T18:40:20.315Z,60.17
2023-01-29T18:42:49.119Z,60.00
2023-01-29T18:45:17.623Z,59.55
2023-01-29T18:47:46.585Z,59.41
2023-01-29T18:50:14.996Z,59.55
2023-01-29T18:52:46.619Z,59.61
2023-01-29T18:55:15.757Z,59.65
2023-01-29T18:58:26.870Z,59.62
2023-01-29T19:00:33.577Z,59.62
2023-01-29T19:03:02.578Z,59.80
2023-01-29T19:05:33.783Z,59.81
2023-01-29T19:08:02.300Z,60.06
2023-01-29T19:10:30.889Z,59.65
2023-01-29T19:13:00.497Z,59.77
2023-01-29T19:15:33.692Z,59.42
2023-01-29T19:18:04.531Z,59.48
2023-01-29T19:20:33.123Z,59.72
2023-01-29T19:23:01.599Z,59.71
2023-01-29T19:25:30.601Z,59.63
2023-01-29T19:27:58.975Z,59.65
2023-01-29T19:30:27.495Z,59.64
2023-01-29T19:32:56.767Z,59.57
2023-01-29T19:35:25.241Z,59.87
2023-01-29T19:37:53.829Z,59.96
2023-01-29T19:40:22.310Z,59.86
2023-01-29T19:42:55.017Z,59.63
2023-01-29T19:45:49.118Z,59.86
2023-01-29T19:48:20.532Z,60.14
2023-01-29T19:51:08.887Z,60.16
2023-01-29T19:53:38.296Z,60.46
2023-01-29T19:56:08.417Z,60.53
2023-01-29T19:58:37.089Z,60.69
2023-01-29T20:01:07.661Z,60.87
2023-01-29T20:03:38.249Z,60.79
2023-01-29T20:06:06.940Z,60.62
2023-01-29T20:08:35.951Z,60.04
2023-01-29T20:11:05.844Z,59.49
2023-01-29T20:13:34.227Z,59.63
2023-01-29T20:16:04.143Z,58.84
2023-01-29T20:18:32.933Z,58.63
2023-01-29T20:21:05.997Z,58.97
2023-01-29T20:23:38.271Z,59.15
2023-01-29T20:26:08.031Z,59.05
2023-01-29T20:28:36.728Z,59.04
2023-01-29T20:31:06.038Z,59.06
2023-01-29T20:33:38.816Z,59.02
2023-01-29T20:36:10.208Z,59.13
2023-01-29T20:38:38.923Z,59.21
2023-01-29T20:41:09.261Z,58.86
2023-01-29T20:43:38.026Z,58.98
2023-01-29T20:46:06.742Z,59.08
2023-01-29T20:48:38.974Z,59.08
2023-01-29T20:51:10.020Z,59.08
2023-01-29T20:53:38.720Z,59.00
2023-01-29T20:56:11.367Z,59.17
2023-01-29T20:58:43.653Z,59.39
2023-01-29T21:01:13.446Z,59.34
2023-01-29T21:03:41.972Z,58.87
2023-01-29T21:06:10.946Z,58.97
2023-01-29T21:08:40.250Z,59.22
2023-01-29T21:11:08.936Z,59.23
2023-01-29T21:13:37.520Z,59.36
2023-01-29T21:16:07.395Z,59.33
2023-01-29T21:18:35.717Z,59.38
2023-01-29T21:21:04.708Z,59.42
2023-01-29T21:23:33.799Z,59.26
2023-01-29T21:26:04.145Z,58.95
2023-01-29T21:28:33.122Z,58.61
2023-01-29T21:31:05.309Z,58.99
2023-01-29T21:33:35.322Z,59.04
2023-01-29T21:36:04.832Z,58.99
2023-01-29T21:38:33.307Z,59.24
2023-01-29T21:41:06.581Z,59.14
